Time;durP1;ratioP1;P1;durP2;ratioP2;P2;SDS_P1;SDS_P2;PMS_P1;PMS_P2;Temp;Humidity;BMP_temperature;BMP_pressure;BME280_temperature;BME280_humidity;BME280_pressure;Samples;Min_cycle;Max_cycle;Signal;HPM_P1;HPM_P2
2021/10/23 00:00:52;;;;;;;31.10;14.40;;;;;;;10.35;100.00;95060.63;10454952;28;20049;-74
2021/10/23 00:05:52;;;;;;;30.58;14.10;;;;;;;10.39;100.00;95065.19;10467356;28;20632;-69
2021/10/23 00:10:53;;;;;;;29.90;13.40;;;;;;;10.40;100.00;95061.44;10464262;28;20020;-64
2021/10/23 00:15:54;;;;;;;32.50;14.40;;;;;;;10.58;100.00;95064.72;10463225;28;20107;-74
2021/10/23 00:20:54;;;;;;;28.65;14.18;;;;;;;10.60;100.00;95059.88;10422547;28;20263;-69
2021/10/23 00:25:55;;;;;;;28.80;13.33;;;;;;;10.62;100.00;95043.50;10422509;28;20051;-69
2021/10/23 00:30:55;;;;;;;28.23;14.10;;;;;;;10.71;100.00;95045.41;10440343;28;20272;-73
2021/10/23 00:35:55;;;;;;;25.93;13.60;;;;;;;10.78;100.00;95045.16;10438698;28;20019;-73
2021/10/23 00:40:56;;;;;;;28.20;13.87;;;;;;;10.73;100.00;95050.50;10438330;28;20264;-71
2021/10/23 00:45:57;;;;;;;33.15;15.20;;;;;;;10.81;100.00;95043.81;10450105;28;20816;-69
2021/10/23 00:50:58;;;;;;;29.23;13.10;;;;;;;10.86;100.00;95041.13;10463537;28;20074;-70
2021/10/23 00:55:58;;;;;;;24.63;12.88;;;;;;;10.93;100.00;95022.84;10438199;28;20579;-69
2021/10/23 01:00:58;;;;;;;26.10;11.73;;;;;;;10.92;100.00;95015.84;10453903;28;20490;-69
2021/10/23 01:05:59;;;;;;;25.70;12.25;;;;;;;10.93;100.00;95012.09;10479491;28;20283;-69
2021/10/23 01:11:00;;;;;;;20.77;11.23;;;;;;;11.02;100.00;95010.47;10496914;28;20028;-74
2021/10/23 01:16:00;;;;;;;23.27;11.00;;;;;;;10.98;100.00;95030.09;10490529;28;20020;-70
2021/10/23 01:21:00;;;;;;;24.08;10.90;;;;;;;11.08;100.00;95025.53;10479751;28;20353;-71
2021/10/23 01:26:02;;;;;;;24.27;9.80;;;;;;;11.07;100.00;95021.22;10469039;28;20668;-68
2021/10/23 01:31:02;;;;;;;19.80;10.40;;;;;;;10.97;100.00;95020.41;10489613;28;20288;-69
2021/10/23 01:36:16;;;;;;;22.83;10.70;;;;;;;11.07;100.00;95017.75;10487082;28;20024;-70
2021/10/23 01:41:17;;;;;;;22.88;10.48;;;;;;;10.98;100.00;95022.88;10494986;28;20024;-68
2021/10/23 01:46:17;;;;;;;28.38;11.32;;;;;;;10.81;100.00;95025.78;10477556;28;20036;-69
2021/10/23 01:51:18;;;;;;;25.20;10.80;;;;;;;10.81;100.00;95025.00;10458684;28;20052;-68
2021/10/23 01:56:18;;;;;;;19.80;10.07;;;;;;;10.76;100.00;95021.22;10487394;28;20024;-74
2021/10/23 02:01:18;;;;;;;26.85;10.65;;;;;;;10.87;100.00;95021.22;10485522;28;20299;-73
2021/10/23 02:06:20;;;;;;;22.13;10.80;;;;;;;10.89;100.00;95016.41;10485453;28;20059;-69
2021/10/23 02:11:20;;;;;;;23.52;11.45;;;;;;;10.85;100.00;95026.88;10490668;28;20271;-73
2021/10/23 02:16:20;;;;;;;20.40;10.73;;;;;;;10.80;100.00;95039.50;10492692;28;20025;-70
2021/10/23 02:21:21;;;;;;;20.73;10.43;;;;;;;10.48;100.00;95041.31;10511836;28;20020;-68
2021/10/23 02:26:21;;;;;;;23.75;11.63;;;;;;;10.33;100.00;95058.16;10498137;28;20294;-75
2021/10/23 02:31:22;;;;;;;24.48;11.82;;;;;;;10.32;100.00;95053.84;10509266;28;20713;-70
2021/10/23 02:36:22;;;;;;;35.93;11.60;;;;;;;10.24;100.00;95063.25;10500549;28;20086;-71
2021/10/23 02:41:24;;;;;;;25.00;10.87;;;;;;;10.20;100.00;95064.84;10492443;28;20266;-70
2021/10/23 02:46:25;;;;;;;22.00;11.27;;;;;;;10.05;100.00;95072.84;10501045;28;20285;-75
2021/10/23 02:51:26;;;;;;;27.98;12.02;;;;;;;9.75;100.00;95071.56;10501131;28;20063;-73
2021/10/23 02:56:26;;;;;;;29.42;11.65;;;;;;;9.88;100.00;95068.44;10500772;28;20023;-70
2021/10/23 03:01:27;;;;;;;26.05;12.23;;;;;;;9.86;100.00;95067.88;10478593;28;20622;-68
2021/10/23 03:06:27;;;;;;;28.83;12.85;;;;;;;9.70;100.00;95072.38;10466617;28;20115;-70
2021/10/23 03:11:28;;;;;;;57.72;53.05;;;;;;;9.74;100.00;95080.72;10466438;28;20107;-69
2021/10/23 03:16:28;;;;;;;27.92;11.57;;;;;;;9.69;100.00;95069.94;10466574;28;20040;-69
2021/10/23 03:21:28;;;;;;;30.80;13.60;;;;;;;9.75;100.00;95071.56;10457030;28;20037;-74
2021/10/23 03:26:29;;;;;;;36.40;12.30;;;;;;;9.78;100.00;95064.88;10441049;28;20032;-74
2021/10/23 03:31:30;;;;;;;94.67;87.57;;;;;;;9.77;100.00;95071.31;10451774;28;20031;-69
2021/10/23 03:36:31;;;;;;;28.30;12.32;;;;;;;9.73;100.00;95071.84;10465233;28;20788;-70
2021/10/23 03:41:31;;;;;;;29.35;12.65;;;;;;;9.64;100.00;95073.41;10448386;28;20024;-73
2021/10/23 03:46:32;;;;;;;362.50;340.35;;;;;;;9.58;100.00;95090.53;10463883;28;20529;-67
2021/10/23 03:51:32;;;;;;;36.70;30.00;;;;;;;9.64;100.00;95089.50;10448485;28;20475;-70
2021/10/23 03:56:33;;;;;;;468.23;440.02;;;;;;;9.70;100.00;95087.69;10482910;28;20078;-69
2021/10/23 04:01:33;;;;;;;22.05;10.73;;;;;;;9.67;100.00;95094.34;10506167;28;20052;-76
2021/10/23 04:06:34;;;;;;;22.33;10.82;;;;;;;9.84;100.00;95099.56;10510939;28;20051;-69
2021/10/23 04:11:34;;;;;;;22.95;12.00;;;;;;;9.95;100.00;95094.25;10505738;28;20113;-74
2021/10/23 04:16:35;;;;;;;597.20;558.55;;;;;;;9.96;100.00;95082.44;10524114;28;20032;-68
2021/10/23 04:21:35;;;;;;;608.30;568.97;;;;;;;9.95;100.00;95084.31;10506036;28;20039;-68
2021/10/23 04:26:37;;;;;;;406.57;377.73;;;;;;;10.04;100.00;95082.75;10522174;28;20059;-69
2021/10/23 04:31:38;;;;;;;21.10;10.20;;;;;;;10.13;100.00;95084.94;10521852;28;20262;-67
2021/10/23 04:36:38;;;;;;;21.03;10.23;;;;;;;10.26;100.00;95087.16;10521555;28;20474;-68
2021/10/23 04:41:39;;;;;;;618.28;575.85;;;;;;;10.25;100.00;95086.34;10521833;28;20313;-65
2021/10/23 04:46:39;;;;;;;21.73;10.20;;;;;;;10.26;100.00;95087.16;10509526;28;20418;-68
2021/10/23 04:51:40;;;;;;;27.08;11.52;;;;;;;10.39;100.00;95092.06;10523563;28;20266;-69
2021/10/23 04:56:40;;;;;;;724.10;674.35;;;;;;;10.49;100.00;95098.56;10522563;28;20219;-67
2021/10/23 05:01:40;;;;;;;22.60;11.38;;;;;;;10.47;100.00;95103.41;10494812;28;20063;-67
2021/10/23 05:06:41;;;;;;;735.20;684.83;;;;;;;10.41;100.00;95098.00;10489121;28;20040;-66
2021/10/23 05:11:41;;;;;;;771.03;718.33;;;;;;;10.40;100.00;95111.69;10470293;28;20301;-72
2021/10/23 05:16:42;;;;;;;694.42;648.28;;;;;;;10.34;100.00;95118.06;10471075;28;20278;-66
2021/10/23 05:21:42;;;;;;;642.50;601.03;;;;;;;10.29;100.00;95128.81;10461321;28;20159;-66
2021/10/23 05:26:43;;;;;;;24.60;11.60;;;;;;;10.32;100.00;95141.72;10450115;28;20637;-67
2021/10/23 05:31:43;;;;;;;24.10;11.18;;;;;;;10.37;100.00;95128.34;10467480;28;20020;-73
2021/10/23 05:36:43;;;;;;;623.92;582.90;;;;;;;10.29;100.00;95147.63;10469256;28;20077;-73
2021/10/23 05:41:44;;;;;;;47.40;15.23;;;;;;;10.37;100.00;95157.91;10469782;28;20025;-71
2021/10/23 05:46:44;;;;;;;640.33;598.20;;;;;;;10.74;100.00;95160.47;10469766;28;20779;-69
2021/10/23 05:51:45;;;;;;;31.93;13.80;;;;;;;11.05;100.00;95160.56;10464209;28;20055;-68
2021/10/23 05:56:46;;;;;;;39.90;15.98;;;;;;;11.27;100.00;95157.66;10489580;28;20361;-68
2021/10/23 06:01:47;;;;;;;749.47;697.40;;;;;;;11.50;100.00;95166.28;10484706;28;20044;-72
2021/10/23 06:06:48;;;;;;;533.05;498.17;;;;;;;11.69;100.00;95169.25;10502368;28;20068;-75
2021/10/23 06:11:49;;;;;;;24.33;14.50;;;;;;;11.78;100.00;95166.84;10543950;28;20537;-74
2021/10/23 06:16:49;;;;;;;23.25;10.20;;;;;;;11.89;100.00;95181.09;10506437;28;20482;-74
2021/10/23 06:21:50;;;;;;;20.23;9.73;;;;;;;11.77;100.00;95187.56;10484073;28;20029;-72
2021/10/23 06:26:50;;;;;;;27.95;11.07;;;;;;;11.89;100.00;95199.94;10484629;28;20275;-74
2021/10/23 06:31:51;;;;;;;26.73;9.63;;;;;;;12.12;100.00;95196.72;10483080;28;20028;-71
2021/10/23 06:36:51;;;;;;;25.23;11.77;;;;;;;12.42;100.00;95205.84;10498285;28;20039;-74
2021/10/23 06:41:52;;;;;;;31.60;18.42;;;;;;;12.54;100.00;95207.44;10505354;28;20382;-70
2021/10/23 06:46:52;;;;;;;33.88;21.65;;;;;;;12.87;100.00;95215.97;10513262;28;20472;-72
2021/10/23 06:51:52;;;;;;;668.80;623.53;;;;;;;13.16;100.00;95210.72;10500084;28;20051;-73
2021/10/23 06:56:53;;;;;;;57.80;52.20;;;;;;;13.00;100.00;95204.56;10500602;28;20864;-74
2021/10/23 07:01:53;;;;;;;598.30;558.90;;;;;;;12.96;100.00;95211.59;10481135;28;20283;-73
2021/10/23 07:06:53;;;;;;;27.00;13.43;;;;;;;13.11;100.00;95225.03;10480938;28;20040;-67
2021/10/23 07:11:54;;;;;;;552.27;516.27;;;;;;;13.41;100.00;95230.59;10489679;28;20319;-72
2021/10/23 07:16:54;;;;;;;30.77;15.17;;;;;;;13.56;100.00;95235.09;10552419;28;20603;-69
2021/10/23 07:21:55;;;;;;;38.73;14.47;;;;;;;13.50;100.00;95239.72;10506357;28;20465;-74
2021/10/23 07:26:55;;;;;;;551.03;515.40;;;;;;;13.63;100.00;95241.00;10507577;28;20270;-73
2021/10/23 07:31:56;;;;;;;30.10;15.33;;;;;;;13.66;100.00;95235.84;10502197;28;20020;-69
2021/10/23 07:36:56;;;;;;;30.73;14.45;;;;;;;13.94;100.00;95235.38;10503220;28;20795;-74
2021/10/23 07:41:57;;;;;;;33.10;14.63;;;;;;;14.17;100.00;95234.63;10520664;28;20509;-74
2021/10/23 07:46:57;;;;;;;42.40;14.63;;;;;;;14.39;100.00;95236.09;10533486;28;20024;-69
2021/10/23 07:51:58;;;;;;;512.95;477.08;;;;;;;14.56;100.00;95235.66;10504814;28;20030;-74
2021/10/23 07:56:59;;;;;;;38.73;14.40;;;;;;;14.61;100.00;95249.13;10520828;28;20360;-74
2021/10/23 08:02:04;;;;;;;412.05;384.98;;;;;;;14.86;100.00;95267.03;10519607;28;20539;-67
2021/10/23 08:07:05;;;;;;;31.00;15.98;;;;;;;14.95;100.00;95261.00;10520011;28;20032;-69
2021/10/23 08:12:06;;;;;;;39.65;16.58;;;;;;;15.12;100.00;95253.19;10503002;28;20020;-70
2021/10/23 08:17:07;;;;;;;45.22;19.88;;;;;;;15.60;100.00;95252.34;10493291;28;20024;-74
2021/10/23 08:22:07;;;;;;;602.88;560.80;;;;;;;16.52;100.00;95258.25;10517401;28;20028;-69
2021/10/23 08:27:07;;;;;;;34.78;15.45;;;;;;;17.42;100.00;95257.94;10517758;28;20036;-73
2021/10/23 08:32:08;;;;;;;27.25;12.93;;;;;;;18.41;100.00;95254.63;10517525;28;20460;-76
2021/10/23 08:37:12;;;;;;;381.00;355.77;;;;;;;19.00;100.00;95255.63;10517535;28;20043;-75
2021/10/23 08:42:14;;;;;;;35.10;14.80;;;;;;;19.20;100.00;95246.91;10518082;28;20286;-72
2021/10/23 08:47:15;;;;;;;38.00;12.70;;;;;;;19.53;100.00;95254.66;10545020;28;20036;-69
2021/10/23 08:52:16;;;;;;;102.75;95.53;;;;;;;20.15;100.00;95242.72;10548678;28;20025;-69
2021/10/23 08:57:16;;;;;;;149.50;139.10;;;;;;;20.71;89.87;95242.03;10479499;28;20028;-73
2021/10/23 09:02:20;;;;;;;23.57;10.83;;;;;;;21.36;79.67;95247.41;10478483;28;20048;-70
2021/10/23 09:07:23;;;;;;;37.72;33.70;;;;;;;21.06;81.05;95244.66;10479132;28;20512;-74
2021/10/23 09:12:29;;;;;;;27.02;10.68;;;;;;;20.85;80.14;95250.03;10495819;28;20107;-74
2021/10/23 09:17:33;;;;;;;22.15;10.45;;;;;;;20.73;84.50;95252.63;10494879;28;20035;-72
2021/10/23 09:22:56;;;;;;;25.95;12.95;;;;;;;20.58;87.36;95243.81;10478079;28;20025;-68
2021/10/23 09:28:11;;;;;;;20.95;9.70;;;;;;;20.56;86.46;95247.97;10476780;28;20036;-70
2021/10/23 09:33:17;;;;;;;23.75;11.30;;;;;;;20.43;91.06;95252.50;10490956;28;20052;-70
2021/10/23 09:38:20;;;;;;;18.42;10.18;;;;;;;20.13;90.93;95255.09;10518379;28;20074;-70
2021/10/23 09:43:23;;;;;;;27.65;11.57;;;;;;;21.07;91.87;95250.91;10520544;28;20107;-70
2021/10/23 09:48:49;;;;;;;18.65;7.72;;;;;;;22.09;72.34;95250.97;10535206;28;20090;-74
2021/10/23 09:53:55;;;;;;;16.50;7.75;;;;;;;22.41;73.78;95240.44;10511384;28;20029;-76
2021/10/23 09:59:01;;;;;;;18.05;12.35;;;;;;;22.87;66.67;95243.97;10526610;28;20105;-68
2021/10/23 10:04:04;;;;;;;19.33;9.05;;;;;;;22.96;69.06;95236.47;10492432;28;20349;-70
2021/10/23 10:09:05;;;;;;;22.02;9.18;;;;;;;22.39;67.71;95240.75;10511763;28;20024;-70
2021/10/23 10:14:08;;;;;;;21.50;9.35;;;;;;;20.49;85.57;95237.56;10527462;28;20468;-74
2021/10/23 10:19:08;;;;;;;25.58;8.88;;;;;;;20.10;93.83;95229.22;10525239;28;20063;-69
2021/10/23 10:24:32;;;;;;;23.00;7.25;;;;;;;20.16;93.15;95227.16;10525392;28;20111;-75
2021/10/23 10:29:59;;;;;;;19.50;8.32;;;;;;;19.81;95.29;95229.88;10524865;28;20566;-70
2021/10/23 10:45:43;;;;;;;18.45;8.38;;;;;;;18.69;100.00;95242.81;10504802;28;20024;-75
2021/10/23 10:50:46;;;;;;;15.25;6.70;;;;;;;18.45;100.00;95244.75;10500756;28;20675;-75
2021/10/23 10:55:52;;;;;;;18.10;8.57;;;;;;;17.97;100.00;95253.50;10481425;28;20032;-75
2021/10/23 11:01:01;;;;;;;16.13;9.32;;;;;;;17.60;100.00;95244.53;10491479;28;20051;-69
2021/10/23 11:06:39;;;;;;;19.00;9.02;;;;;;;17.51;100.00;95241.72;10523641;28;20024;-71
2021/10/23 11:11:42;;;;;;;22.40;9.23;;;;;;;17.28;100.00;95242.78;10523162;28;20035;-70
2021/10/23 11:16:43;;;;;;;17.50;9.35;;;;;;;17.02;100.00;95243.25;10511419;28;20105;-71
2021/10/23 11:21:43;;;;;;;23.38;10.82;;;;;;;17.09;100.00;95243.66;10514903;28;20089;-74
2021/10/23 11:26:52;;;;;;;20.75;10.05;;;;;;;17.12;100.00;95239.53;10502244;28;20028;-69
2021/10/23 11:31:54;;;;;;;21.05;9.95;;;;;;;17.13;100.00;95246.59;10540938;28;20036;-74
2021/10/23 11:37:10;;;;;;;19.02;9.50;;;;;;;17.08;100.00;95242.06;10537567;28;20493;-67
2021/10/23 11:42:30;;;;;;;22.23;11.18;;;;;;;17.16;100.00;95241.34;10540730;27;20031;-73
2021/10/23 11:47:31;;;;;;;20.52;9.88;;;;;;;17.02;100.00;95235.13;10533307;28;20032;-75
2021/10/23 11:52:33;;;;;;;21.15;10.60;;;;;;;16.86;100.00;95235.38;10511836;28;20031;-73
2021/10/23 11:57:42;;;;;;;21.90;11.00;;;;;;;16.86;100.00;95231.88;10500791;28;20020;-69
2021/10/23 12:02:51;;;;;;;19.80;10.80;;;;;;;17.07;100.00;95235.03;10560180;28;20027;-70
2021/10/23 12:08:21;;;;;;;24.02;10.35;;;;;;;17.17;100.00;95229.38;10511516;28;20033;-69
2021/10/23 12:13:21;;;;;;;21.13;9.68;;;;;;;17.04;100.00;95231.00;10529470;28;20024;-72
2021/10/23 12:18:31;;;;;;;19.38;9.73;;;;;;;17.10;100.00;95228.97;10479673;28;20025;-70
2021/10/23 12:23:50;;;;;;;25.15;9.18;;;;;;;17.14;100.00;95232.72;10461461;28;20406;-72
2021/10/23 12:28:57;;;;;;;23.80;9.85;;;;;;;17.14;100.00;95238.13;10462734;28;20028;-68
2021/10/23 12:34:06;;;;;;;25.65;8.55;;;;;;;17.00;100.00;95226.47;10478719;28;20023;-68
2021/10/23 12:39:24;;;;;;;21.05;9.10;;;;;;;17.26;100.00;95234.91;10478680;28;20028;-74
2021/10/23 12:44:26;;;;;;;32.85;12.30;;;;;;;17.24;100.00;95240.63;10461222;28;20024;-65
2021/10/23 12:49:26;;;;;;;24.75;10.40;;;;;;;17.06;100.00;95236.13;10503857;28;20038;-70
2021/10/23 12:54:27;;;;;;;19.77;9.40;;;;;;;16.95;100.00;95242.88;10492668;28;20020;-68
2021/10/23 12:59:27;;;;;;;21.33;10.27;;;;;;;16.79;100.00;95236.91;10479051;28;20303;-73
2021/10/23 13:04:27;;;;;;;20.13;9.70;;;;;;;16.64;100.00;95248.84;10478017;28;20405;-70
2021/10/23 13:09:28;;;;;;;25.10;11.33;;;;;;;16.49;100.00;95247.97;10460884;28;20021;-71
2021/10/23 13:14:28;;;;;;;29.20;12.43;;;;;;;16.38;100.00;95241.94;10477400;28;20021;-68
2021/10/23 13:19:29;;;;;;;24.27;11.83;;;;;;;16.26;100.00;95241.59;10481640;28;20029;-68
2021/10/23 13:24:29;;;;;;;27.42;13.23;;;;;;;16.20;100.00;95240.88;10485465;28;20652;-69
2021/10/23 13:29:30;;;;;;;30.60;12.20;;;;;;;16.36;100.00;95241.44;10493506;28;20414;-73
2021/10/23 13:34:30;;;;;;;29.88;12.07;;;;;;;16.35;100.00;95239.84;10491215;28;20016;-67
2021/10/23 13:39:31;;;;;;;35.27;14.80;;;;;;;16.34;100.00;95237.41;10477475;28;20212;-70
2021/10/23 13:44:32;;;;;;;23.08;11.05;;;;;;;16.27;100.00;95226.13;10493768;28;20857;-67
2021/10/23 13:49:33;;;;;;;22.10;9.82;;;;;;;16.18;100.00;95231.44;10510060;28;20058;-68
2021/10/23 13:54:33;;;;;;;23.70;9.30;;;;;;;16.16;100.00;95233.63;10492797;28;20016;-69
2021/10/23 13:59:34;;;;;;;17.40;9.52;;;;;;;16.20;100.00;95229.22;10492135;28;20677;-72
2021/10/23 14:04:35;;;;;;;18.35;8.90;;;;;;;16.11;100.00;95228.31;10484240;28;20502;-73
2021/10/23 14:09:35;;;;;;;18.58;8.18;;;;;;;15.92;100.00;95236.44;10484153;28;20104;-74
2021/10/23 14:14:36;;;;;;;18.25;7.70;;;;;;;15.93;100.00;95247.00;10518515;28;20024;-72
2021/10/23 14:19:36;;;;;;;22.13;10.25;;;;;;;15.81;100.00;95239.31;10526550;28;20024;-72
2021/10/23 14:24:37;;;;;;;27.85;10.90;;;;;;;15.86;100.00;95236.53;10508101;28;20027;-68
2021/10/23 14:29:38;;;;;;;20.52;10.02;;;;;;;15.71;100.00;95244.84;10498428;28;20514;-68
2021/10/23 14:34:38;;;;;;;18.60;9.07;;;;;;;15.62;100.00;95242.00;10499689;28;20038;-72
2021/10/23 14:39:39;;;;;;;20.00;9.93;;;;;;;15.50;100.00;95253.28;10540221;28;20395;-68
2021/10/23 14:44:39;;;;;;;23.95;12.23;;;;;;;15.42;100.00;95253.94;10515157;28;20285;-70
2021/10/23 14:49:40;;;;;;;26.37;11.53;;;;;;;15.22;100.00;95260.38;10510480;28;20016;-72
2021/10/23 14:54:41;;;;;;;26.92;14.93;;;;;;;14.95;100.00;95269.91;10498174;28;20272;-67
2021/10/23 14:59:41;;;;;;;31.42;17.17;;;;;;;14.64;100.00;95283.75;10524637;28;20453;-68
2021/10/23 15:04:41;;;;;;;36.37;14.80;;;;;;;14.41;100.00;95282.56;10465329;28;20044;-67
2021/10/23 15:09:42;;;;;;;326.13;305.20;;;;;;;14.29;100.00;95285.66;10494043;28;20873;-73
2021/10/23 15:14:42;;;;;;;190.13;176.93;;;;;;;14.05;100.00;95299.09;10522821;28;20388;-73
2021/10/23 15:19:43;;;;;;;314.27;293.90;;;;;;;13.83;100.00;95294.91;10527694;28;20549;-73
2021/10/23 15:24:43;;;;;;;36.50;14.57;;;;;;;13.71;100.00;95307.13;10504973;28;20050;-69
2021/10/23 15:29:44;;;;;;;411.17;384.10;;;;;;;13.33;100.00;95308.34;10500888;28;20266;-73
2021/10/23 15:34:44;;;;;;;32.95;13.90;;;;;;;13.16;100.00;95316.78;10547132;28;20212;-73
2021/10/23 15:39:46;;;;;;;42.33;15.80;;;;;;;12.97;100.00;95321.94;10517762;28;20501;-68
2021/10/23 15:44:48;;;;;;;86.03;77.80;;;;;;;12.98;100.00;95317.38;10535416;28;20815;-70
2021/10/23 15:49:49;;;;;;;361.17;337.90;;;;;;;13.01;100.00;95335.72;10503825;28;20504;-72
2021/10/23 15:54:50;;;;;;;487.80;455.65;;;;;;;12.88;100.00;95355.97;10504757;28;20114;-69
2021/10/23 15:59:50;;;;;;;112.50;103.22;;;;;;;12.73;100.00;95366.78;10502066;28;20110;-68
2021/10/23 16:04:51;;;;;;;423.17;395.90;;;;;;;12.57;100.00;95366.78;10494923;28;20032;-74
2021/10/23 16:09:51;;;;;;;37.95;16.42;;;;;;;12.64;100.00;95374.59;10496476;28;20330;-72
2021/10/23 16:14:52;;;;;;;404.63;378.45;;;;;;;12.58;100.00;95379.19;10497055;28;20077;-72
2021/10/23 16:19:52;;;;;;;37.50;15.80;;;;;;;12.48;100.00;95396.16;10541070;28;20023;-72
2021/10/23 16:24:53;;;;;;;517.47;483.67;;;;;;;12.33;100.00;95404.22;10560770;28;20054;-71
2021/10/23 16:29:53;;;;;;;33.30;14.73;;;;;;;12.27;100.00;95400.72;10506652;28;20295;-68
2021/10/23 16:34:53;;;;;;;34.58;14.65;;;;;;;12.20;100.00;95405.56;10517928;28;20030;-76
2021/10/23 16:39:54;;;;;;;31.55;14.07;;;;;;;12.19;100.00;95420.09;10470836;28;20020;-68
2021/10/23 16:44:55;;;;;;;36.60;16.20;;;;;;;12.02;100.00;95417.66;10465504;28;20374;-73
2021/10/23 16:49:55;;;;;;;30.55;14.93;;;;;;;12.10;100.00;95430.59;10504277;28;20262;-69
2021/10/23 16:54:56;;;;;;;29.57;15.03;;;;;;;12.17;100.00;95416.88;10506294;28;20027;-69
2021/10/23 16:59:56;;;;;;;32.17;15.35;;;;;;;12.10;100.00;95422.53;10511500;28;20648;-72
2021/10/23 17:04:57;;;;;;;29.45;14.25;;;;;;;11.96;100.00;95427.59;10529857;28;20024;-71
2021/10/23 17:09:58;;;;;;;32.60;14.48;;;;;;;11.86;100.00;95427.53;10511019;28;20074;-69
2021/10/23 17:14:58;;;;;;;29.08;14.13;;;;;;;11.74;100.00;95430.44;10511002;28;20020;-67
2021/10/23 17:19:59;;;;;;;31.05;13.90;;;;;;;11.64;100.00;95427.72;10511387;28;20028;-72
2021/10/23 17:24:59;;;;;;;26.42;13.63;;;;;;;11.74;100.00;95427.75;10494198;28;20028;-66
2021/10/23 17:30:00;;;;;;;28.65;13.20;;;;;;;11.71;100.00;95425.59;10528672;28;20080;-72
2021/10/23 17:35:01;;;;;;;25.80;11.45;;;;;;;11.73;100.00;95428.81;10515006;28;20020;-73
2021/10/23 17:40:02;;;;;;;24.60;10.15;;;;;;;11.52;100.00;95429.81;10510166;28;20031;-73
2021/10/23 17:45:02;;;;;;;20.33;10.25;;;;;;;11.45;100.00;95424.66;10509374;28;20586;-68
2021/10/23 17:50:03;;;;;;;17.70;8.85;;;;;;;11.40;100.00;95430.84;10496468;28;20025;-73
2021/10/23 17:55:04;;;;;;;18.65;9.50;;;;;;;11.46;100.00;95439.75;10523861;28;20028;-70
2021/10/23 18:00:07;;;;;;;17.38;8.65;;;;;;;11.39;100.00;95434.59;10527516;28;20044;-73
2021/10/23 18:05:08;;;;;;;16.17;8.00;;;;;;;11.16;100.00;95435.78;10509067;28;20036;-73
2021/10/23 18:10:10;;;;;;;14.90;7.47;;;;;;;11.22;100.00;95433.94;10517796;28;20032;-67
2021/10/23 18:15:12;;;;;;;15.70;7.32;;;;;;;11.06;100.00;95430.34;10467763;28;20140;-69
2021/10/23 18:20:15;;;;;;;16.15;7.00;;;;;;;11.21;100.00;95435.03;10492463;28;20021;-67
2021/10/23 18:25:18;;;;;;;16.55;6.88;;;;;;;11.22;100.00;95450.09;10519283;28;20421;-71
2021/10/23 18:30:19;;;;;;;15.65;7.10;;;;;;;11.28;100.00;95447.16;10481946;28;20464;-78
2021/10/23 18:35:20;;;;;;;13.90;8.00;;;;;;;11.28;100.00;95444.47;10537624;28;20081;-75
2021/10/23 18:40:21;;;;;;;16.20;8.10;;;;;;;11.29;100.00;95439.94;10528355;28;20278;-76
2021/10/23 18:45:22;;;;;;;18.15;8.93;;;;;;;11.14;100.00;95437.13;10508859;28;20016;-76
2021/10/23 18:50:25;;;;;;;14.23;7.50;;;;;;;10.98;100.00;95452.34;10508916;28;20110;-76
2021/10/23 18:55:26;;;;;;;16.20;9.00;;;;;;;11.09;100.00;95452.19;10525512;28;20390;-69
2021/10/23 19:00:29;;;;;;;20.92;8.57;;;;;;;11.00;100.00;95456.41;10525992;28;20417;-70
2021/10/23 19:05:29;;;;;;;16.55;8.02;;;;;;;10.78;100.00;95459.97;10506923;28;20553;-76
2021/10/23 19:10:30;;;;;;;14.88;7.43;;;;;;;10.75;100.00;95448.94;10506272;28;20107;-76
2021/10/23 19:15:30;;;;;;;16.58;8.23;;;;;;;10.74;100.00;95455.38;10507763;28;20789;-72
2021/10/23 19:20:31;;;;;;;21.07;8.33;;;;;;;10.65;100.00;95462.31;10506261;28;20402;-72
2021/10/23 19:25:31;;;;;;;16.83;8.53;;;;;;;10.58;100.00;95467.91;10480705;28;20286;-73
2021/10/23 19:30:33;;;;;;;21.00;11.77;;;;;;;10.54;100.00;95481.03;10465303;28;20350;-71
2021/10/23 19:35:34;;;;;;;18.75;8.32;;;;;;;10.54;100.00;95489.09;10480459;28;20024;-70
2021/10/23 19:40:34;;;;;;;15.65;7.70;;;;;;;10.46;100.00;95496.81;10481875;28;20516;-71
2021/10/23 19:45:37;;;;;;;17.63;8.68;;;;;;;10.14;100.00;95500.97;10474250;28;20024;-75
2021/10/23 19:50:37;;;;;;;17.58;8.52;;;;;;;10.05;100.00;95499.81;10523584;28;20536;-71
2021/10/23 19:55:38;;;;;;;19.80;8.80;;;;;;;9.96;100.00;95507.47;10504680;28;20020;-71
2021/10/23 20:00:38;;;;;;;17.23;8.23;;;;;;;9.96;100.00;95510.16;10522315;28;20081;-72
2021/10/23 20:05:41;;;;;;;20.50;8.27;;;;;;;9.96;100.00;95509.38;10540293;28;20039;-77
2021/10/23 20:10:43;;;;;;;16.88;7.35;;;;;;;9.97;100.00;95505.63;10540365;28;20317;-72
2021/10/23 20:15:43;;;;;;;15.15;8.13;;;;;;;9.77;100.00;95506.16;10535943;28;20579;-74
2021/10/23 20:20:44;;;;;;;21.02;7.75;;;;;;;9.66;100.00;95514.09;10545185;28;20954;-71
2021/10/23 20:25:45;;;;;;;18.85;8.38;;;;;;;9.56;100.00;95517.44;10544729;28;20536;-72
2021/10/23 20:30:46;;;;;;;15.70;8.10;;;;;;;9.63;100.00;95525.34;10545410;28;20027;-74
2021/10/23 20:35:46;;;;;;;18.33;8.13;;;;;;;9.51;100.00;95521.94;10544895;28;20285;-71
2021/10/23 20:40:47;;;;;;;16.30;7.88;;;;;;;9.60;100.00;95533.88;10604455;22;20084;-71
2021/10/23 20:45:48;;;;;;;11.07;6.40;;;;;;;9.45;100.00;95542.50;10427565;28;20120;-73
2021/10/23 20:50:49;;;;;;;14.52;7.20;;;;;;;9.37;100.00;95542.94;10413773;28;20087;-70
2021/10/23 20:55:49;;;;;;;22.83;8.48;;;;;;;9.22;100.00;95559.59;10400287;28;20052;-71
2021/10/23 21:00:50;;;;;;;19.33;8.45;;;;;;;9.21;100.00;95558.78;10401983;28;20556;-69
2021/10/23 21:05:52;;;;;;;27.40;15.30;;;;;;;9.17;100.00;95563.00;10396777;28;20423;-71
2021/10/23 21:10:52;;;;;;;19.63;8.40;;;;;;;8.88;100.00;95565.75;10396637;28;20099;-69
2021/10/23 21:15:53;;;;;;;16.77;7.63;;;;;;;8.82;100.00;95574.75;10396756;28;20462;-69
2021/10/23 21:20:54;;;;;;;17.88;8.50;;;;;;;8.71;100.00;95575.63;10426223;28;20033;-71
2021/10/23 21:25:54;;;;;;;19.05;7.65;;;;;;;8.65;100.00;95584.63;10437536;28;20021;-72
2021/10/23 21:30:54;;;;;;;16.07;8.37;;;;;;;8.65;100.00;95590.81;10437589;28;20402;-77
2021/10/23 21:35:55;;;;;;;53.17;49.03;;;;;;;8.67;100.00;95591.38;10414216;28;20257;-71
2021/10/23 21:40:56;;;;;;;16.55;7.47;;;;;;;8.50;100.00;95607.41;10400385;28;20056;-71
2021/10/23 21:45:57;;;;;;;21.75;10.70;;;;;;;8.31;100.00;95612.06;10405026;28;20068;-74
2021/10/23 21:51:08;;;;;;;333.10;314.50;;;;;;;8.14;100.00;95632.59;10420832;28;20044;-74
2021/10/23 21:56:09;;;;;;;643.70;577.22;;;;;;;7.54;100.00;95642.50;10419991;28;20025;-70
2021/10/23 22:01:12;;;;;;;37.85;34.42;;;;;;;7.42;100.00;95655.06;10419651;28;20029;-71
2021/10/23 22:06:14;;;;;;;24.73;10.43;;;;;;;7.15;100.00;95653.59;10403931;28;20495;-71
2021/10/23 22:11:15;;;;;;;23.52;18.95;;;;;;;6.92;100.00;95664.22;10420018;28;20040;-71
2021/10/23 22:16:16;;;;;;;261.00;241.38;;;;;;;6.77;100.00;95669.97;10419660;28;20029;-74
2021/10/23 22:21:17;;;;;;;15.32;6.57;;;;;;;6.73;100.00;95679.50;10418560;28;20024;-69
2021/10/23 22:26:19;;;;;;;13.07;6.75;;;;;;;6.58;100.00;95680.69;10404101;28;20452;-73
2021/10/23 22:31:19;;;;;;;18.67;8.32;;;;;;;6.49;100.00;95690.06;10401742;28;20538;-73
2021/10/23 22:36:20;;;;;;;18.85;8.27;;;;;;;6.38;100.00;95693.44;10418457;28;20029;-70
2021/10/23 22:41:21;;;;;;;12.57;6.95;;;;;;;6.24;100.00;95692.78;10401766;28;20164;-71
2021/10/23 22:46:21;;;;;;;12.95;6.85;;;;;;;6.27;100.00;95706.50;10417894;28;20129;-71
2021/10/23 22:51:22;;;;;;;11.90;6.35;;;;;;;6.25;100.00;95715.75;10401316;28;20021;-71